sensor_id;sensor_type;location;lat;lon;timestamp;P1;durP1;ratioP1;P2;durP2;ratioP2
61899;SDS011;47853;55.890;37.664;2024-03-07T00:00:14;19.23;;;7.03;;
61899;SDS011;47853;55.890;37.664;2024-03-07T00:02:41;15.38;;;6.90;;
61899;SDS011;47853;55.890;37.664;2024-03-07T00:05:07;21.83;;;7.22;;
61899;SDS011;47853;55.890;37.664;2024-03-07T00:07:32;22.33;;;7.88;;
61899;SDS011;47853;55.890;37.664;2024-03-07T00:09:58;14.23;;;6.38;;
61899;SDS011;47853;55.890;37.664;2024-03-07T00:12:23;17.67;;;7.50;;
61899;SDS011;47853;55.890;37.664;2024-03-07T00:14:48;17.25;;;7.68;;
61899;SDS011;47853;55.890;37.664;2024-03-07T00:17:14;22.58;;;9.73;;
61899;SDS011;47853;55.890;37.664;2024-03-07T00:19:39;29.55;;;9.70;;
61899;SDS011;47853;55.890;37.664;2024-03-07T00:22:05;23.25;;;9.48;;
61899;SDS011;47853;55.890;37.664;2024-03-07T00:24:30;21.58;;;8.70;;
61899;SDS011;47853;55.890;37.664;2024-03-07T00:26:55;29.63;;;8.27;;
61899;SDS011;47853;55.890;37.664;2024-03-07T00:29:21;22.30;;;7.40;;
61899;SDS011;47853;55.890;37.664;2024-03-07T00:31:46;19.60;;;6.93;;
61899;SDS011;47853;55.890;37.664;2024-03-07T00:34:15;15.15;;;7.40;;
61899;SDS011;47853;55.890;37.664;2024-03-07T00:36:40;19.05;;;7.50;;
61899;SDS011;47853;55.890;37.664;2024-03-07T00:39:06;26.17;;;7.68;;
61899;SDS011;47853;55.890;37.664;2024-03-07T00:41:31;20.23;;;6.57;;
61899;SDS011;47853;55.890;37.664;2024-03-07T00:43:57;15.57;;;7.15;;
61899;SDS011;47853;55.890;37.664;2024-03-07T00:46:22;19.67;;;7.45;;
61899;SDS011;47853;55.890;37.664;2024-03-07T00:48:47;18.42;;;6.22;;
61899;SDS011;47853;55.890;37.664;2024-03-07T00:51:13;17.48;;;6.68;;
61899;SDS011;47853;55.890;37.664;2024-03-07T00:53:38;19.52;;;7.07;;
61899;SDS011;47853;55.890;37.664;2024-03-07T00:56:04;29.52;;;7.55;;
61899;SDS011;47853;55.890;37.664;2024-03-07T00:58:29;17.77;;;7.60;;
61899;SDS011;47853;55.890;37.664;2024-03-07T01:00:54;16.33;;;6.70;;
61899;SDS011;47853;55.890;37.664;2024-03-07T01:03:20;15.85;;;7.15;;
61899;SDS011;47853;55.890;37.664;2024-03-07T01:05:46;17.60;;;7.70;;
61899;SDS011;47853;55.890;37.664;2024-03-07T01:08:11;26.95;;;7.20;;
61899;SDS011;47853;55.890;37.664;2024-03-07T01:10:37;11.93;;;5.78;;
61899;SDS011;47853;55.890;37.664;2024-03-07T01:13:02;18.80;;;6.45;;
61899;SDS011;47853;55.890;37.664;2024-03-07T01:15:28;18.00;;;6.15;;
61899;SDS011;47853;55.890;37.664;2024-03-07T01:17:53;19.35;;;6.82;;
61899;SDS011;47853;55.890;37.664;2024-03-07T01:20:19;12.95;;;5.85;;
61899;SDS011;47853;55.890;37.664;2024-03-07T01:22:44;21.88;;;6.97;;
61899;SDS011;47853;55.890;37.664;2024-03-07T01:25:10;17.63;;;6.55;;
61899;SDS011;47853;55.890;37.664;2024-03-07T01:27:35;12.00;;;5.85;;
61899;SDS011;47853;55.890;37.664;2024-03-07T01:30:01;14.57;;;6.20;;
61899;SDS011;47853;55.890;37.664;2024-03-07T01:32:26;14.07;;;5.32;;
61899;SDS011;47853;55.890;37.664;2024-03-07T01:34:52;18.42;;;7.20;;
61899;SDS011;47853;55.890;37.664;2024-03-07T01:37:17;13.65;;;6.45;;
61899;SDS011;47853;55.890;37.664;2024-03-07T01:39:43;18.20;;;6.82;;
61899;SDS011;47853;55.890;37.664;2024-03-07T01:42:08;14.45;;;5.93;;
61899;SDS011;47853;55.890;37.664;2024-03-07T01:44:34;13.30;;;6.78;;
61899;SDS011;47853;55.890;37.664;2024-03-07T01:46:59;18.38;;;6.25;;
61899;SDS011;47853;55.890;37.664;2024-03-07T01:49:24;20.30;;;5.85;;
61899;SDS011;47853;55.890;37.664;2024-03-07T01:51:50;16.77;;;6.68;;
61899;SDS011;47853;55.890;37.664;2024-03-07T01:54:16;18.17;;;6.88;;
61899;SDS011;47853;55.890;37.664;2024-03-07T01:56:41;21.90;;;6.72;;
61899;SDS011;47853;55.890;37.664;2024-03-07T01:59:07;16.17;;;6.40;;
61899;SDS011;47853;55.890;37.664;2024-03-07T02:01:34;17.15;;;5.88;;
61899;SDS011;47853;55.890;37.664;2024-03-07T02:04:00;20.90;;;6.15;;
61899;SDS011;47853;55.890;37.664;2024-03-07T02:06:25;14.35;;;6.13;;
61899;SDS011;47853;55.890;37.664;2024-03-07T02:08:51;15.15;;;5.72;;
61899;SDS011;47853;55.890;37.664;2024-03-07T02:11:17;18.30;;;5.65;;
61899;SDS011;47853;55.890;37.664;2024-03-07T02:13:42;13.90;;;5.10;;
61899;SDS011;47853;55.890;37.664;2024-03-07T02:16:08;17.33;;;5.65;;
61899;SDS011;47853;55.890;37.664;2024-03-07T02:18:34;13.82;;;5.10;;
61899;SDS011;47853;55.890;37.664;2024-03-07T02:21:00;19.10;;;6.68;;
61899;SDS011;47853;55.890;37.664;2024-03-07T02:23:25;17.05;;;5.95;;
61899;SDS011;47853;55.890;37.664;2024-03-07T02:25:51;18.65;;;5.65;;
61899;SDS011;47853;55.890;37.664;2024-03-07T02:28:16;14.50;;;5.78;;
61899;SDS011;47853;55.890;37.664;2024-03-07T02:30:42;11.88;;;5.35;;
61899;SDS011;47853;55.890;37.664;2024-03-07T02:33:07;18.95;;;6.10;;
61899;SDS011;47853;55.890;37.664;2024-03-07T02:35:33;8.55;;;4.25;;
61899;SDS011;47853;55.890;37.664;2024-03-07T02:37:59;13.88;;;4.88;;
61899;SDS011;47853;55.890;37.664;2024-03-07T02:40:24;14.40;;;4.55;;
61899;SDS011;47853;55.890;37.664;2024-03-07T02:42:49;10.82;;;4.25;;
61899;SDS011;47853;55.890;37.664;2024-03-07T02:45:15;15.27;;;4.70;;
61899;SDS011;47853;55.890;37.664;2024-03-07T02:47:40;13.85;;;4.78;;
61899;SDS011;47853;55.890;37.664;2024-03-07T02:50:06;9.63;;;4.53;;
61899;SDS011;47853;55.890;37.664;2024-03-07T02:52:31;17.65;;;5.10;;
61899;SDS011;47853;55.890;37.664;2024-03-07T02:54:57;13.75;;;4.70;;
61899;SDS011;47853;55.890;37.664;2024-03-07T02:57:22;15.10;;;4.95;;
61899;SDS011;47853;55.890;37.664;2024-03-07T02:59:48;11.48;;;4.63;;
61899;SDS011;47853;55.890;37.664;2024-03-07T03:02:13;12.65;;;4.57;;
61899;SDS011;47853;55.890;37.664;2024-03-07T03:04:38;11.93;;;4.43;;
61899;SDS011;47853;55.890;37.664;2024-03-07T03:07:04;12.50;;;4.78;;
61899;SDS011;47853;55.890;37.664;2024-03-07T03:09:29;11.68;;;4.60;;
61899;SDS011;47853;55.890;37.664;2024-03-07T03:11:55;17.67;;;6.20;;
61899;SDS011;47853;55.890;37.664;2024-03-07T03:14:20;10.35;;;3.72;;
61899;SDS011;47853;55.890;37.664;2024-03-07T03:16:46;10.52;;;4.22;;
61899;SDS011;47853;55.890;37.664;2024-03-07T03:19:11;11.85;;;3.97;;
61899;SDS011;47853;55.890;37.664;2024-03-07T03:21:37;13.15;;;4.45;;
61899;SDS011;47853;55.890;37.664;2024-03-07T03:24:02;11.52;;;4.25;;
61899;SDS011;47853;55.890;37.664;2024-03-07T03:26:28;13.73;;;4.47;;
61899;SDS011;47853;55.890;37.664;2024-03-07T03:28:56;14.15;;;4.63;;
61899;SDS011;47853;55.890;37.664;2024-03-07T03:31:21;11.07;;;4.07;;
61899;SDS011;47853;55.890;37.664;2024-03-07T03:33:47;16.70;;;5.20;;
61899;SDS011;47853;55.890;37.664;2024-03-07T03:36:13;11.15;;;4.70;;
61899;SDS011;47853;55.890;37.664;2024-03-07T03:38:38;12.10;;;4.93;;
61899;SDS011;47853;55.890;37.664;2024-03-07T03:41:04;16.02;;;5.57;;
61899;SDS011;47853;55.890;37.664;2024-03-07T03:43:29;10.45;;;4.75;;
61899;SDS011;47853;55.890;37.664;2024-03-07T03:45:55;10.15;;;4.70;;
61899;SDS011;47853;55.890;37.664;2024-03-07T03:48:20;13.48;;;5.43;;
61899;SDS011;47853;55.890;37.664;2024-03-07T03:50:46;9.70;;;5.05;;
61899;SDS011;47853;55.890;37.664;2024-03-07T03:53:11;12.82;;;4.68;;
61899;SDS011;47853;55.890;37.664;2024-03-07T03:55:37;11.45;;;4.03;;
61899;SDS011;47853;55.890;37.664;2024-03-07T03:58:02;17.58;;;5.55;;
61899;SDS011;47853;55.890;37.664;2024-03-07T04:00:28;9.85;;;4.97;;
61899;SDS011;47853;55.890;37.664;2024-03-07T04:02:53;9.98;;;4.57;;
61899;SDS011;47853;55.890;37.664;2024-03-07T04:05:19;8.90;;;3.45;;
61899;SDS011;47853;55.890;37.664;2024-03-07T04:07:45;5.95;;;3.83;;
61899;SDS011;47853;55.890;37.664;2024-03-07T04:10:11;8.52;;;4.32;;
61899;SDS011;47853;55.890;37.664;2024-03-07T04:12:38;11.52;;;4.10;;
61899;SDS011;47853;55.890;37.664;2024-03-07T04:15:10;6.78;;;3.08;;
61899;SDS011;47853;55.890;37.664;2024-03-07T04:17:37;10.63;;;2.92;;
61899;SDS011;47853;55.890;37.664;2024-03-07T04:22:44;10.73;;;3.80;;
61899;SDS011;47853;55.890;37.664;2024-03-07T04:25:09;7.38;;;3.88;;
61899;SDS011;47853;55.890;37.664;2024-03-07T04:27:35;6.80;;;3.53;;
61899;SDS011;47853;55.890;37.664;2024-03-07T04:30:01;10.93;;;3.60;;
61899;SDS011;47853;55.890;37.664;2024-03-07T04:32:27;5.45;;;3.65;;
61899;SDS011;47853;55.890;37.664;2024-03-07T04:34:53;5.38;;;2.90;;
61899;SDS011;47853;55.890;37.664;2024-03-07T04:37:18;7.10;;;3.60;;
61899;SDS011;47853;55.890;37.664;2024-03-07T04:39:44;9.90;;;3.90;;
61899;SDS011;47853;55.890;37.664;2024-03-07T04:42:09;7.70;;;4.10;;
61899;SDS011;47853;55.890;37.664;2024-03-07T04:44:35;5.93;;;3.38;;
61899;SDS011;47853;55.890;37.664;2024-03-07T04:47:03;7.35;;;3.97;;
61899;SDS011;47853;55.890;37.664;2024-03-07T04:49:29;9.07;;;3.70;;
61899;SDS011;47853;55.890;37.664;2024-03-07T04:51:56;10.30;;;4.20;;
61899;SDS011;47853;55.890;37.664;2024-03-07T04:54:23;8.30;;;3.20;;
61899;SDS011;47853;55.890;37.664;2024-03-07T04:56:49;8.27;;;3.60;;
61899;SDS011;47853;55.890;37.664;2024-03-07T04:59:16;6.65;;;2.95;;
61899;SDS011;47853;55.890;37.664;2024-03-07T05:01:43;7.22;;;2.83;;
61899;SDS011;47853;55.890;37.664;2024-03-07T05:04:09;8.32;;;3.70;;
61899;SDS011;47853;55.890;37.664;2024-03-07T05:06:36;7.68;;;3.92;;
61899;SDS011;47853;55.890;37.664;2024-03-07T05:09:05;12.48;;;3.70;;
61899;SDS011;47853;55.890;37.664;2024-03-07T05:11:31;9.88;;;3.92;;
61899;SDS011;47853;55.890;37.664;2024-03-07T05:13:58;10.20;;;3.60;;
61899;SDS011;47853;55.890;37.664;2024-03-07T05:16:24;10.98;;;3.60;;
61899;SDS011;47853;55.890;37.664;2024-03-07T05:18:50;10.65;;;3.80;;
61899;SDS011;47853;55.890;37.664;2024-03-07T05:21:16;7.30;;;3.65;;
61899;SDS011;47853;55.890;37.664;2024-03-07T05:23:41;8.48;;;3.72;;
61899;SDS011;47853;55.890;37.664;2024-03-07T05:26:07;5.60;;;3.53;;
61899;SDS011;47853;55.890;37.664;2024-03-07T05:28:32;8.25;;;4.00;;
61899;SDS011;47853;55.890;37.664;2024-03-07T05:30:57;10.45;;;3.60;;
61899;SDS011;47853;55.890;37.664;2024-03-07T05:33:23;11.32;;;4.15;;
61899;SDS011;47853;55.890;37.664;2024-03-07T05:35:48;13.32;;;3.88;;
61899;SDS011;47853;55.890;37.664;2024-03-07T05:38:14;7.15;;;4.00;;
61899;SDS011;47853;55.890;37.664;2024-03-07T05:40:39;10.30;;;3.72;;
61899;SDS011;47853;55.890;37.664;2024-03-07T05:43:04;6.53;;;3.35;;
61899;SDS011;47853;55.890;37.664;2024-03-07T05:45:36;16.35;;;3.72;;
61899;SDS011;47853;55.890;37.664;2024-03-07T05:50:40;8.77;;;3.45;;
61899;SDS011;47853;55.890;37.664;2024-03-07T05:53:05;6.32;;;3.40;;
61899;SDS011;47853;55.890;37.664;2024-03-07T05:55:30;9.50;;;4.32;;
61899;SDS011;47853;55.890;37.664;2024-03-07T05:57:56;11.00;;;4.07;;
61899;SDS011;47853;55.890;37.664;2024-03-07T06:00:21;6.00;;;3.80;;
61899;SDS011;47853;55.890;37.664;2024-03-07T06:02:47;13.13;;;3.83;;
61899;SDS011;47853;55.890;37.664;2024-03-07T06:05:12;9.55;;;3.88;;
61899;SDS011;47853;55.890;37.664;2024-03-07T06:07:38;5.95;;;3.83;;
61899;SDS011;47853;55.890;37.664;2024-03-07T06:10:03;7.47;;;4.18;;
61899;SDS011;47853;55.890;37.664;2024-03-07T06:12:29;11.95;;;4.13;;
61899;SDS011;47853;55.890;37.664;2024-03-07T06:14:54;12.20;;;4.38;;
61899;SDS011;47853;55.890;37.664;2024-03-07T06:17:20;8.25;;;3.80;;
61899;SDS011;47853;55.890;37.664;2024-03-07T06:19:45;7.43;;;4.00;;
61899;SDS011;47853;55.890;37.664;2024-03-07T06:22:10;10.68;;;4.28;;
61899;SDS011;47853;55.890;37.664;2024-03-07T06:24:36;8.98;;;4.07;;
61899;SDS011;47853;55.890;37.664;2024-03-07T06:27:01;16.90;;;4.22;;
61899;SDS011;47853;55.890;37.664;2024-03-07T06:29:27;7.47;;;4.00;;
61899;SDS011;47853;55.890;37.664;2024-03-07T06:31:52;12.07;;;4.10;;
61899;SDS011;47853;55.890;37.664;2024-03-07T06:34:17;14.27;;;5.03;;
61899;SDS011;47853;55.890;37.664;2024-03-07T06:36:43;13.23;;;4.43;;
61899;SDS011;47853;55.890;37.664;2024-03-07T06:39:08;8.35;;;4.25;;
61899;SDS011;47853;55.890;37.664;2024-03-07T06:41:34;14.60;;;4.30;;
61899;SDS011;47853;55.890;37.664;2024-03-07T06:44:00;12.38;;;4.95;;
61899;SDS011;47853;55.890;37.664;2024-03-07T06:46:26;11.77;;;4.57;;
61899;SDS011;47853;55.890;37.664;2024-03-07T06:48:51;10.10;;;4.15;;
61899;SDS011;47853;55.890;37.664;2024-03-07T06:51:17;9.45;;;3.70;;
61899;SDS011;47853;55.890;37.664;2024-03-07T06:53:43;13.13;;;3.90;;
61899;SDS011;47853;55.890;37.664;2024-03-07T06:56:09;12.80;;;4.38;;
61899;SDS011;47853;55.890;37.664;2024-03-07T06:58:34;12.00;;;4.25;;
61899;SDS011;47853;55.890;37.664;2024-03-07T07:01:00;22.88;;;4.82;;
61899;SDS011;47853;55.890;37.664;2024-03-07T07:03:25;17.65;;;4.85;;
61899;SDS011;47853;55.890;37.664;2024-03-07T07:05:51;12.88;;;4.85;;
61899;SDS011;47853;55.890;37.664;2024-03-07T07:08:16;16.30;;;4.72;;
61899;SDS011;47853;55.890;37.664;2024-03-07T07:10:41;9.05;;;4.65;;
61899;SDS011;47853;55.890;37.664;2024-03-07T07:13:08;13.15;;;4.18;;
61899;SDS011;47853;55.890;37.664;2024-03-07T07:15:34;16.13;;;4.53;;
61899;SDS011;47853;55.890;37.664;2024-03-07T07:17:59;14.80;;;4.68;;
61899;SDS011;47853;55.890;37.664;2024-03-07T07:20:25;17.42;;;4.90;;
61899;SDS011;47853;55.890;37.664;2024-03-07T07:22:50;7.97;;;5.00;;
61899;SDS011;47853;55.890;37.664;2024-03-07T07:25:16;25.73;;;4.53;;
61899;SDS011;47853;55.890;37.664;2024-03-07T07:27:46;14.07;;;4.40;;
61899;SDS011;47853;55.890;37.664;2024-03-07T07:30:13;15.05;;;4.47;;
61899;SDS011;47853;55.890;37.664;2024-03-07T07:32:40;18.05;;;4.38;;
61899;SDS011;47853;55.890;37.664;2024-03-07T07:35:07;14.10;;;4.75;;
61899;SDS011;47853;55.890;37.664;2024-03-07T07:37:32;15.55;;;4.63;;
61899;SDS011;47853;55.890;37.664;2024-03-07T07:39:58;12.60;;;5.03;;
61899;SDS011;47853;55.890;37.664;2024-03-07T07:42:23;14.93;;;4.88;;
61899;SDS011;47853;55.890;37.664;2024-03-07T07:44:48;9.90;;;3.92;;
61899;SDS011;47853;55.890;37.664;2024-03-07T07:47:14;12.85;;;4.93;;
61899;SDS011;47853;55.890;37.664;2024-03-07T07:49:39;20.05;;;5.15;;
61899;SDS011;47853;55.890;37.664;2024-03-07T07:52:05;19.73;;;4.55;;
61899;SDS011;47853;55.890;37.664;2024-03-07T07:54:30;18.27;;;5.00;;
61899;SDS011;47853;55.890;37.664;2024-03-07T07:56:56;10.32;;;4.32;;
61899;SDS011;47853;55.890;37.664;2024-03-07T07:59:22;13.25;;;4.47;;
61899;SDS011;47853;55.890;37.664;2024-03-07T08:01:47;11.48;;;4.60;;
61899;SDS011;47853;55.890;37.664;2024-03-07T08:04:13;14.95;;;4.97;;
61899;SDS011;47853;55.890;37.664;2024-03-07T08:06:38;16.85;;;4.97;;
61899;SDS011;47853;55.890;37.664;2024-03-07T08:09:03;12.60;;;4.00;;
61899;SDS011;47853;55.890;37.664;2024-03-07T08:11:29;22.80;;;4.88;;
61899;SDS011;47853;55.890;37.664;2024-03-07T08:13:54;9.95;;;4.65;;
61899;SDS011;47853;55.890;37.664;2024-03-07T08:16:20;8.02;;;3.42;;
61899;SDS011;47853;55.890;37.664;2024-03-07T08:18:45;8.90;;;4.07;;
61899;SDS011;47853;55.890;37.664;2024-03-07T08:21:10;21.60;;;6.25;;
61899;SDS011;47853;55.890;37.664;2024-03-07T08:23:36;14.18;;;4.32;;
61899;SDS011;47853;55.890;37.664;2024-03-07T08:26:02;13.10;;;4.20;;
61899;SDS011;47853;55.890;37.664;2024-03-07T08:28:28;13.85;;;4.55;;
61899;SDS011;47853;55.890;37.664;2024-03-07T08:30:53;9.50;;;4.47;;
61899;SDS011;47853;55.890;37.664;2024-03-07T08:33:19;19.30;;;4.68;;
61899;SDS011;47853;55.890;37.664;2024-03-07T08:35:44;15.05;;;4.75;;
61899;SDS011;47853;55.890;37.664;2024-03-07T08:38:09;15.60;;;4.22;;
61899;SDS011;47853;55.890;37.664;2024-03-07T08:40:35;13.88;;;4.45;;
61899;SDS011;47853;55.890;37.664;2024-03-07T08:43:01;14.93;;;4.22;;
61899;SDS011;47853;55.890;37.664;2024-03-07T08:45:27;11.20;;;4.22;;
61899;SDS011;47853;55.890;37.664;2024-03-07T08:47:54;12.90;;;4.10;;
61899;SDS011;47853;55.890;37.664;2024-03-07T08:50:21;11.15;;;4.95;;
61899;SDS011;47853;55.890;37.664;2024-03-07T08:52:47;11.90;;;4.65;;
61899;SDS011;47853;55.890;37.664;2024-03-07T08:55:14;18.30;;;4.68;;
61899;SDS011;47853;55.890;37.664;2024-03-07T08:57:47;12.13;;;4.03;;
61899;SDS011;47853;55.890;37.664;2024-03-07T09:00:13;11.60;;;4.50;;
61899;SDS011;47853;55.890;37.664;2024-03-07T09:02:39;7.15;;;4.00;;
61899;SDS011;47853;55.890;37.664;2024-03-07T09:05:05;9.27;;;3.67;;
61899;SDS011;47853;55.890;37.664;2024-03-07T09:07:31;14.52;;;4.50;;
61899;SDS011;47853;55.890;37.664;2024-03-07T09:09:57;8.55;;;3.70;;
61899;SDS011;47853;55.890;37.664;2024-03-07T09:12:23;9.30;;;4.13;;
61899;SDS011;47853;55.890;37.664;2024-03-07T09:14:48;15.10;;;4.38;;
61899;SDS011;47853;55.890;37.664;2024-03-07T09:17:14;9.60;;;3.95;;
61899;SDS011;47853;55.890;37.664;2024-03-07T09:19:39;16.30;;;4.18;;
61899;SDS011;47853;55.890;37.664;2024-03-07T09:22:04;15.63;;;4.25;;
61899;SDS011;47853;55.890;37.664;2024-03-07T09:24:30;9.52;;;4.22;;
61899;SDS011;47853;55.890;37.664;2024-03-07T09:26:56;9.63;;;3.97;;
61899;SDS011;47853;55.890;37.664;2024-03-07T09:29:22;8.52;;;3.95;;
61899;SDS011;47853;55.890;37.664;2024-03-07T09:31:50;8.18;;;4.20;;
61899;SDS011;47853;55.890;37.664;2024-03-07T09:34:17;14.07;;;4.07;;
61899;SDS011;47853;55.890;37.664;2024-03-07T09:36:43;9.07;;;3.88;;
61899;SDS011;47853;55.890;37.664;2024-03-07T09:39:09;8.98;;;3.72;;
61899;SDS011;47853;55.890;37.664;2024-03-07T09:41:34;9.52;;;3.97;;
61899;SDS011;47853;55.890;37.664;2024-03-07T09:44:00;9.52;;;4.40;;
61899;SDS011;47853;55.890;37.664;2024-03-07T09:46:26;20.80;;;5.25;;
61899;SDS011;47853;55.890;37.664;2024-03-07T09:48:52;9.07;;;3.58;;
61899;SDS011;47853;55.890;37.664;2024-03-07T09:51:21;12.20;;;3.85;;
61899;SDS011;47853;55.890;37.664;2024-03-07T09:53:48;7.35;;;4.32;;
61899;SDS011;47853;55.890;37.664;2024-03-07T09:56:15;10.85;;;4.18;;
61899;SDS011;47853;55.890;37.664;2024-03-07T09:58:47;11.77;;;3.95;;
61899;SDS011;47853;55.890;37.664;2024-03-07T10:01:14;8.63;;;4.00;;
61899;SDS011;47853;55.890;37.664;2024-03-07T10:03:40;9.98;;;4.10;;
61899;SDS011;47853;55.890;37.664;2024-03-07T10:06:10;12.43;;;4.03;;
61899;SDS011;47853;55.890;37.664;2024-03-07T10:08:35;11.95;;;4.40;;
61899;SDS011;47853;55.890;37.664;2024-03-07T10:11:01;9.65;;;3.97;;
61899;SDS011;47853;55.890;37.664;2024-03-07T10:13:26;10.52;;;4.53;;
61899;SDS011;47853;55.890;37.664;2024-03-07T10:15:52;9.85;;;3.72;;
61899;SDS011;47853;55.890;37.664;2024-03-07T10:18:17;15.10;;;4.43;;
61899;SDS011;47853;55.890;37.664;2024-03-07T10:20:43;12.40;;;4.82;;
61899;SDS011;47853;55.890;37.664;2024-03-07T10:23:08;8.30;;;3.85;;
61899;SDS011;47853;55.890;37.664;2024-03-07T10:25:34;13.10;;;4.15;;
61899;SDS011;47853;55.890;37.664;2024-03-07T10:27:59;7.60;;;3.25;;
61899;SDS011;47853;55.890;37.664;2024-03-07T10:30:24;12.57;;;3.60;;
61899;SDS011;47853;55.890;37.664;2024-03-07T10:32:57;7.47;;;3.75;;
61899;SDS011;47853;55.890;37.664;2024-03-07T10:35:23;12.43;;;3.93;;
61899;SDS011;47853;55.890;37.664;2024-03-07T10:37:49;6.20;;;3.30;;
61899;SDS011;47853;55.890;37.664;2024-03-07T10:40:15;9.10;;;3.50;;
61899;SDS011;47853;55.890;37.664;2024-03-07T10:42:46;6.90;;;3.28;;
61899;SDS011;47853;55.890;37.664;2024-03-07T10:45:13;6.47;;;3.63;;
61899;SDS011;47853;55.890;37.664;2024-03-07T10:47:42;7.28;;;2.97;;
61899;SDS011;47853;55.890;37.664;2024-03-07T10:58:33;7.88;;;3.05;;
61899;SDS011;47853;55.890;37.664;2024-03-07T11:01:06;8.18;;;3.22;;
61899;SDS011;47853;55.890;37.664;2024-03-07T11:03:35;6.90;;;3.00;;
61899;SDS011;47853;55.890;37.664;2024-03-07T11:06:01;12.75;;;2.70;;
61899;SDS011;47853;55.890;37.664;2024-03-07T11:08:26;9.05;;;2.72;;
61899;SDS011;47853;55.890;37.664;2024-03-07T11:10:52;9.65;;;3.00;;
61899;SDS011;47853;55.890;37.664;2024-03-07T11:13:18;5.30;;;2.15;;
61899;SDS011;47853;55.890;37.664;2024-03-07T11:15:46;9.65;;;3.55;;
61899;SDS011;47853;55.890;37.664;2024-03-07T11:18:13;10.32;;;3.20;;
61899;SDS011;47853;55.890;37.664;2024-03-07T11:20:39;8.48;;;3.13;;
61899;SDS011;47853;55.890;37.664;2024-03-07T11:23:24;7.43;;;2.85;;
61899;SDS011;47853;55.890;37.664;2024-03-07T11:25:50;11.00;;;3.00;;
61899;SDS011;47853;55.890;37.664;2024-03-07T11:28:19;6.50;;;2.70;;
61899;SDS011;47853;55.890;37.664;2024-03-07T11:30:44;4.97;;;2.90;;
61899;SDS011;47853;55.890;37.664;2024-03-07T11:33:09;5.97;;;2.53;;
61899;SDS011;47853;55.890;37.664;2024-03-07T11:35:36;9.45;;;2.88;;
61899;SDS011;47853;55.890;37.664;2024-03-07T11:38:02;6.53;;;2.50;;
61899;SDS011;47853;55.890;37.664;2024-03-07T11:42:56;22.00;;;11.25;;
61899;SDS011;47853;55.890;37.664;2024-03-07T11:45:26;25.33;;;14.02;;
61899;SDS011;47853;55.890;37.664;2024-03-07T11:47:52;10.05;;;3.15;;
61899;SDS011;47853;55.890;37.664;2024-03-07T11:50:18;6.22;;;2.45;;
61899;SDS011;47853;55.890;37.664;2024-03-07T11:52:44;4.35;;;2.55;;
61899;SDS011;47853;55.890;37.664;2024-03-07T11:55:10;9.00;;;3.25;;
61899;SDS011;47853;55.890;37.664;2024-03-07T11:57:36;6.78;;;2.63;;
61899;SDS011;47853;55.890;37.664;2024-03-07T12:00:02;3.35;;;2.72;;
61899;SDS011;47853;55.890;37.664;2024-03-07T12:02:28;10.88;;;3.10;;
61899;SDS011;47853;55.890;37.664;2024-03-07T12:04:54;7.60;;;2.88;;
61899;SDS011;47853;55.890;37.664;2024-03-07T12:07:19;4.25;;;2.42;;
61899;SDS011;47853;55.890;37.664;2024-03-07T12:09:45;2.55;;;2.08;;
61899;SDS011;47853;55.890;37.664;2024-03-07T12:12:10;6.22;;;3.00;;
61899;SDS011;47853;55.890;37.664;2024-03-07T12:14:39;5.88;;;2.80;;
61899;SDS011;47853;55.890;37.664;2024-03-07T12:17:05;7.05;;;2.78;;
61899;SDS011;47853;55.890;37.664;2024-03-07T12:19:33;6.35;;;2.45;;
61899;SDS011;47853;55.890;37.664;2024-03-07T12:22:02;6.95;;;2.80;;
61899;SDS011;47853;55.890;37.664;2024-03-07T12:24:30;8.40;;;4.10;;
61899;SDS011;47853;55.890;37.664;2024-03-07T12:27:05;7.88;;;3.28;;
61899;SDS011;47853;55.890;37.664;2024-03-07T12:29:32;7.70;;;3.17;;
61899;SDS011;47853;55.890;37.664;2024-03-07T12:31:57;8.05;;;2.92;;
61899;SDS011;47853;55.890;37.664;2024-03-07T12:34:22;5.10;;;3.10;;
61899;SDS011;47853;55.890;37.664;2024-03-07T12:36:48;4.53;;;2.50;;
61899;SDS011;47853;55.890;37.664;2024-03-07T12:39:23;4.45;;;2.60;;
61899;SDS011;47853;55.890;37.664;2024-03-07T12:41:49;4.03;;;2.70;;
61899;SDS011;47853;55.890;37.664;2024-03-07T12:44:15;5.38;;;2.67;;
61899;SDS011;47853;55.890;37.664;2024-03-07T12:46:40;5.63;;;2.63;;
61899;SDS011;47853;55.890;37.664;2024-03-07T12:49:06;6.60;;;2.78;;
61899;SDS011;47853;55.890;37.664;2024-03-07T12:51:31;6.22;;;2.80;;
61899;SDS011;47853;55.890;37.664;2024-03-07T12:54:00;5.15;;;3.17;;
61899;SDS011;47853;55.890;37.664;2024-03-07T12:56:41;8.40;;;2.70;;
61899;SDS011;47853;55.890;37.664;2024-03-07T13:02:31;5.00;;;2.30;;
61899;SDS011;47853;55.890;37.664;2024-03-07T13:04:57;6.07;;;2.10;;
61899;SDS011;47853;55.890;37.664;2024-03-07T13:07:22;4.20;;;2.30;;
61899;SDS011;47853;55.890;37.664;2024-03-07T13:09:48;10.68;;;2.22;;
61899;SDS011;47853;55.890;37.664;2024-03-07T13:12:13;3.80;;;1.98;;
61899;SDS011;47853;55.890;37.664;2024-03-07T13:14:39;3.60;;;2.20;;
61899;SDS011;47853;55.890;37.664;2024-03-07T13:17:05;5.93;;;2.33;;
61899;SDS011;47853;55.890;37.664;2024-03-07T13:19:32;3.72;;;1.83;;
61899;SDS011;47853;55.890;37.664;2024-03-07T13:21:58;4.43;;;2.60;;
61899;SDS011;47853;55.890;37.664;2024-03-07T13:24:24;5.05;;;2.22;;
61899;SDS011;47853;55.890;37.664;2024-03-07T13:26:51;3.53;;;2.03;;
61899;SDS011;47853;55.890;37.664;2024-03-07T13:29:17;3.85;;;1.98;;
61899;SDS011;47853;55.890;37.664;2024-03-07T13:31:43;5.28;;;2.40;;
61899;SDS011;47853;55.890;37.664;2024-03-07T13:34:12;4.72;;;2.05;;
61899;SDS011;47853;55.890;37.664;2024-03-07T13:36:41;4.22;;;2.22;;
61899;SDS011;47853;55.890;37.664;2024-03-07T13:39:08;7.93;;;2.17;;
61899;SDS011;47853;55.890;37.664;2024-03-07T13:41:36;6.45;;;2.13;;
61899;SDS011;47853;55.890;37.664;2024-03-07T13:44:11;3.13;;;1.83;;
61899;SDS011;47853;55.890;37.664;2024-03-07T13:46:36;3.53;;;1.83;;
61899;SDS011;47853;55.890;37.664;2024-03-07T13:49:05;2.50;;;1.75;;
61899;SDS011;47853;55.890;37.664;2024-03-07T13:51:30;9.25;;;1.75;;
61899;SDS011;47853;55.890;37.664;2024-03-07T13:53:56;3.42;;;1.60;;
61899;SDS011;47853;55.890;37.664;2024-03-07T13:59:31;7.80;;;2.58;;
61899;SDS011;47853;55.890;37.664;2024-03-07T14:08:19;2.78;;;1.60;;
61899;SDS011;47853;55.890;37.664;2024-03-07T14:32:44;8.10;;;3.10;;
61899;SDS011;47853;55.890;37.664;2024-03-07T14:35:30;10.68;;;2.40;;
61899;SDS011;47853;55.890;37.664;2024-03-07T14:38:57;6.93;;;2.05;;
61899;SDS011;47853;55.890;37.664;2024-03-07T14:41:05;5.53;;;2.13;;
61899;SDS011;47853;55.890;37.664;2024-03-07T14:43:34;7.03;;;2.28;;
61899;SDS011;47853;55.890;37.664;2024-03-07T14:45:59;6.07;;;2.05;;
61899;SDS011;47853;55.890;37.664;2024-03-07T14:48:25;6.38;;;1.60;;
61899;SDS011;47853;55.890;37.664;2024-03-07T14:50:51;7.05;;;1.80;;
61899;SDS011;47853;55.890;37.664;2024-03-07T14:53:16;5.65;;;1.63;;
61899;SDS011;47853;55.890;37.664;2024-03-07T14:55:45;8.73;;;2.13;;
61899;SDS011;47853;55.890;37.664;2024-03-07T14:58:11;7.15;;;1.50;;
61899;SDS011;47853;55.890;37.664;2024-03-07T15:00:37;6.72;;;1.45;;
61899;SDS011;47853;55.890;37.664;2024-03-07T15:03:04;3.17;;;1.77;;
61899;SDS011;47853;55.890;37.664;2024-03-07T15:05:29;9.90;;;1.75;;
61899;SDS011;47853;55.890;37.664;2024-03-07T15:07:58;25.20;;;3.00;;
61899;SDS011;47853;55.890;37.664;2024-03-07T15:10:33;9.65;;;1.50;;
61899;SDS011;47853;55.890;37.664;2024-03-07T15:13:00;6.30;;;1.88;;